Data for 04/03/2013

Time Sea-Level Adjusted Pressure Absolute Pressure Temperature Relative Humidity Dew Point   
(mb) (inHg) (mb) (inHg) (C) (F) (%) (C) (F)
00:05 1018 30.06 847 25.01 7.5 45.4 48 -2.7 27.1
00:10 1018 30.06 847 25.01 7.5 45.5 49 -2.6 27.3
00:15 1018 30.06 847 25.01 7.6 45.7 48 -2.6 27.4
00:20 1018 30.06 847 25.01 7.4 45.4 49 -2.5 27.6
00:25 1018 30.06 847 25.01 7.3 45.1 50 -2.6 27.4
00:30 1018 30.06 847 25.01 7.3 45.2 50 -2.3 27.8
00:35 1018 30.06 847 25.01 7.2 44.9 51 -2.1 28.2
00:40 1018 30.06 847 25.01 7 44.6 53 -2 28.4
00:45 1018 30.06 847 25.01 7.2 45 50 -2.5 27.5
00:50 1018 30.06 847 25.01 8 46.4 47 -2.7 27.2
00:55 1018 30.06 847 25.01 8.6 47.4 46 -2.5 27.6
01:00 1018 30.06 847 25.01 8.8 47.8 45 -2.4 27.6
01:05 1018 30.06 847 25.01 8.8 47.9 45 -2.5 27.5
01:10 1018 30.06 847 25.01 8.8 47.9 45 -2.4 27.8
01:15 1018 30.06 847 25.01 8.7 47.6 46 -2.3 27.8
01:20 1018 30.06 847 25.01 8.6 47.4 46 -2.2 28
01:25 1018 30.06 847 25.01 8.5 47.2 47 -2.3 27.9
01:30 1018 30.06 847 25.01 8.4 47.2 47 -2.3 27.8
01:35 1018 30.06 848 25.04 8.5 47.2 47 -2.3 27.9
01:40 1018 30.06 848 25.04 8.5 47.2 46 -2.3 27.8
01:45 1018 30.06 848 25.04 8.5 47.2 47 -2.3 27.8
01:50 1018 30.06 848 25.04 8.3 47 49 -1.8 28.7
01:55 1018 30.06 848 25.04 7.5 45.5 52 -1.8 28.8
02:00 1018 30.06 848 25.04 7 44.5 53 -1.8 28.7
02:05 1018 30.06 848 25.04 6.8 44.2 55 -1.7 28.9
02:10 1018 30.06 848 25.04 6.8 44.2 54 -2 28.4
02:15 1019 30.09 848 25.04 6.8 44.3 54 -1.7 28.9
02:20 1019 30.09 848 25.04 6.7 44.1 55 -1.8 28.8
02:25 1019 30.09 848 25.04 6.6 43.9 55 -1.8 28.8
02:30 1019 30.09 848 25.04 6.6 43.8 54 -2 28.4
02:35 1019 30.09 848 25.04 6.8 44.2 53 -2 28.3
02:40 1019 30.09 848 25.04 6.7 44 54 -1.9 28.6
02:45 1019 30.09 848 25.04 6.8 44.2 53 -2.2 28.1
02:50 1019 30.09 848 25.04 7.1 44.8 52 -2 28.3
02:55 1019 30.09 848 25.04 6.9 44.4 53 -2.1 28.3
03:00 1019 30.09 848 25.04 6.5 43.7 54 -2.1 28.3
03:05 1019 30.09 848 25.04 6.2 43.2 55 -2.2 28.1
03:10 1019 30.09 848 25.04 6.3 43.3 54 -2.4 27.6
03:15 1019 30.09 848 25.04 6.4 43.6 54 -2.2 28.1
03:20 1019 30.09 848 25.04 6 42.8 55 -2.3 27.9
03:25 1019 30.09 848 25.04 5.9 42.6 57 -2 28.4
03:30 1019 30.09 848 25.04 5.1 41.2 60 -1.9 28.6
03:35 1019 30.09 848 25.04 5 41.1 59 -2.3 27.9
03:40 1019 30.09 848 25.04 5.4 41.7 58 -2.1 28.1
03:45 1019 30.09 848 25.04 5.3 41.6 58 -2.2 28
03:50 1019 30.09 848 25.04 5.2 41.4 59 -2.2 28
03:55 1019 30.09 848 25.04 5.1 41.2 59 -2.3 27.9
04:00 1019 30.09 848 25.04 5.1 41.2 59 -2.2 28
04:05 1019 30.09 848 25.04 5.1 41.3 59 -2.2 28.1
04:10 1019 30.09 848 25.04 4.9 40.8 60 -2.2 28
04:15 1019 30.09 848 25.04 4.9 40.8 59 -2.4 27.7
04:20 1019 30.09 848 25.04 5.3 41.5 56 -2.7 27.1
04:25 1019 30.09 848 25.04 5.6 42.1 58 -2 28.3
04:30 1019 30.09 848 25.04 4.8 40.7 60 -2.3 27.9
04:35 1019 30.09 848 25.04 4.8 40.6 59 -2.6 27.3
04:40 1019 30.09 848 25.04 5.2 41.4 58 -2.3 27.8
04:45 1019 30.09 848 25.04 5.1 41.3 59 -2.1 28.2
04:50 1019 30.09 848 25.04 5 40.9 59 -2.3 27.9
04:55 1019 30.09 849 25.07 5.1 41.1 60 -2.1 28.2
05:00 1019 30.09 849 25.07 5.1 41.2 59 -2.3 27.9
05:05 1019 30.09 849 25.07 5.3 41.5 57 -2.4 27.6
05:10 1019 30.09 849 25.07 5.2 41.4 58 -2.3 27.9
05:15 1019 30.09 849 25.07 5.1 41.1 59 -2.4 27.7
05:20 1019 30.09 849 25.07 5 41.1 58 -2.4 27.6
05:25 1019 30.09 849 25.07 4.6 40.2 61 -2.3 27.8
05:30 1020 30.12 849 25.07 4.2 39.5 62 -2.5 27.6
05:35 1020 30.12 849 25.07 4.5 40.1 60 -2.5 27.5
05:40 1020 30.12 849 25.07 4.7 40.5 60 -2.4 27.6
05:45 1020 30.12 849 25.07 4.7 40.5 59 -2.6 27.4
05:50 1020 30.12 849 25.07 4.8 40.7 60 -2.2 28
05:55 1020 30.12 849 25.07 4.7 40.5 61 -2.2 28
06:00 1020 30.12 849 25.07 4.6 40.3 61 -2.3 27.8
06:05 1020 30.12 849 25.07 4.8 40.6 60 -2.4 27.7
06:10 1020 30.12 849 25.07 4.7 40.4 60 -2.4 27.7
06:15 1020 30.12 849 25.07 4.6 40.3 60 -2.4 27.7
06:20 1020 30.12 849 25.07 4.6 40.4 60 -2.4 27.6
06:25 1020 30.12 849 25.07 4.8 40.6 59 -2.5 27.5
06:30 1020 30.12 849 25.07 4.8 40.6 59 -2.5 27.5
06:35 1020 30.12 849 25.07 4.8 40.6 60 -2.4 27.7
06:40 1020 30.12 849 25.07 4.4 40 62 -2.3 27.9
06:45 1020 30.12 849 25.07 4 39.2 63 -2.4 27.6
06:50 1020 30.12 849 25.07 4.2 39.6 61 -2.5 27.5
06:55 1020 30.12 849 25.07 4.6 40.3 60 -2.4 27.6
07:00 1020 30.12 849 25.07 4.9 40.9 59 -2.4 27.6
07:05 1020 30.12 849 25.07 5.3 41.5 58 -2.3 27.9
07:10 1020 30.12 849 25.07 5.7 42.2 56 -2.4 27.7
07:15 1020 30.12 849 25.07 5.9 42.6 55 -2.5 27.5
07:20 1020 30.12 849 25.07 6.4 43.5 52 -2.7 27.1
07:25 1020 30.12 849 25.07 7.2 45 51 -2.4 27.7
07:30 1020 30.12 849 25.07 7.7 45.8 49 -2.3 27.8
07:35 1020 30.12 850 25.1 7.9 46.3 48 -2.2 28
07:40 1020 30.12 850 25.1 8.2 46.8 48 -2.2 28
07:45 1020 30.12 850 25.1 8.4 47.2 47 -2.3 27.9
07:50 1020 30.12 850 25.1 8.9 48 46 -2.1 28.3
07:55 1021 30.15 850 25.1 9.7 49.5 44 -1.8 28.7
08:00 1020 30.12 850 25.1 9.4 48.8 45 -2 28.3
08:05 1020 30.12 850 25.1 9.8 49.7 42 -2.4 27.7
08:10 1021 30.15 850 25.1 10.3 50.5 40 -2.8 26.9
08:15 1021 30.15 850 25.1 10.6 51.2 40 -2.2 28
08:20 1021 30.15 850 25.1 10.8 51.5 40 -2.3 27.8
08:25 1020 30.12 850 25.1 11 51.8 39 -2.3 27.8
08:30 1020 30.12 850 25.1 11.1 52 39 -2.4 27.6
08:35 1020 30.12 850 25.1 11.3 52.3 38 -2.3 27.8
08:40 1020 30.12 850 25.1 11.8 53.3 35 -2.9 26.8
08:45 1020 30.12 850 25.1 11.9 53.4 35 -3.1 26.4
08:50 1020 30.12 850 25.1 12.4 54.3 34 -3 26.7
08:55 1020 30.12 850 25.1 12.5 54.4 33 -3.1 26.4
09:00 1020 30.12 850 25.1 12.4 54.4 34 -2.9 26.8
09:05 1020 30.12 850 25.1 12.9 55.1 33 -2.8 26.9
09:10 1020 30.12 850 25.1 12.9 55.2 34 -2.6 27.3
09:15 1020 30.12 850 25.1 12.7 54.8 36 -2 28.4
09:20 1021 30.15 850 25.1 12.4 54.3 34 -2.8 26.9
09:25 1021 30.15 850 25.1 12.6 54.7 34 -2.6 27.3
09:30 1021 30.15 850 25.1 12.3 54.2 36 -2.3 27.8
09:35 1021 30.15 850 25.1 12.5 54.5 35 -2.6 27.4
09:40 1021 30.15 850 25.1 12.6 54.7 35 -2.3 27.9
09:45 1021 30.15 850 25.1 12.5 54.5 35 -2.4 27.8
09:50 1021 30.15 850 25.1 12.3 54.1 35 -2.8 27
09:55 1021 30.15 850 25.1 12.6 54.7 34 -2.7 27.1
10:00 1021 30.15 850 25.1 13 55.3 34 -2.6 27.3
10:05 1021 30.15 850 25.1 13.1 55.6 33 -2.8 27
10:10 1021 30.15 850 25.1 13.6 56.4 32 -2.6 27.4
10:15 1021 30.15 850 25.1 13.7 56.7 31 -3 26.5
10:20 1021 30.15 850 25.1 13.8 56.8 32 -2.7 27.1
10:25 1021 30.15 850 25.1 13.5 56.3 32 -2.8 27
10:30 1021 30.15 850 25.1 12.5 54.4 33 -3.2 26.3
10:35 1021 30.15 850 25.1 13.1 55.5 31 -3.7 25.4
10:40 1021 30.15 850 25.1 14.1 57.4 30 -3.3 26.1
10:45 1021 30.15 850 25.1 14.2 57.6 31 -2.5 27.5
10:50 1021 30.15 850 25.1 13.7 56.6 29 -3.9 25.1
10:55 1020 30.12 850 25.1 14.9 58.9 29 -3.1 26.4
11:00 1021 30.15 850 25.1 15.3 59.5 28 -3.2 26.2
11:05 1021 30.15 850 25.1 14.4 57.9 30 -2.8 26.9
11:10 1020 30.12 850 25.1 13.4 56.1 31 -3.5 25.7
11:15 1020 30.12 850 25.1 13.5 56.3 29 -4 24.8
11:20 1020 30.12 850 25.1 14.5 58.1 27 -4.1 24.7
11:25 1020 30.12 850 25.1 15.6 60.1 26 -3.6 25.5
11:30 1020 30.12 850 25.1 14.8 58.7 27 -3.9 25
11:35 1020 30.12 850 25.1 13.8 56.8 27 -4.6 23.6
11:40 1020 30.12 850 25.1 14.5 58.1 26 -4.6 23.7
11:45 1020 30.12 849 25.07 14.6 58.2 26 -4.8 23.3
11:50 1020 30.12 849 25.07 14.2 57.5 25 -5.4 22.4
11:55 1020 30.12 849 25.07 14.3 57.7 23 -6.7 19.9
12:00 1020 30.12 849 25.07 14.5 58.2 23 -6 21.2
12:05 1020 30.12 849 25.07 14.3 57.7 24 -5.7 21.7
12:10 1020 30.12 849 25.07 14.5 58.2 23 -6.1 21
12:15 1020 30.12 849 25.07 14.2 57.5 24 -6.3 20.7
12:20 1020 30.12 849 25.07 14.6 58.2 24 -5.5 22
12:25 1020 30.12 849 25.07 14.6 58.3 25 -5 23
12:30 1020 30.12 849 25.07 14.5 58.1 24 -6 21.2
12:35 1020 30.12 849 25.07 14.4 57.9 23 -6.2 20.9
12:40 1020 30.12 849 25.07 14.3 57.7 24 -6.1 21
12:45 1020 30.12 849 25.07 14 57.3 24 -6 21.1
12:50 1020 30.12 849 25.07 14 57.3 24 -6 21.2
12:55 1020 30.12 849 25.07 14.1 57.4 24 -5.9 21.3
13:00 1020 30.12 849 25.07 14.3 57.8 24 -5.8 21.5
13:05 1020 30.12 849 25.07 14.6 58.3 23 -6.2 20.8
13:10 1020 30.12 849 25.07 14.4 57.8 26 -5 23
13:15 1020 30.12 849 25.07 13.2 55.7 26 -5.8 21.6
13:20 1020 30.12 849 25.07 13.5 56.4 24 -6.3 20.6
13:25 1020 30.12 849 25.07 14.3 57.7 24 -6.2 20.9
13:30 1020 30.12 849 25.07 14.9 58.9 23 -5.9 21.3
13:35 1020 30.12 849 25.07 15.2 59.4 23 -5.8 21.6
13:40 1020 30.12 849 25.07 15.9 60.6 23 -5 23.1
13:45 1020 30.12 849 25.07 15.3 59.5 23 -5.5 22.1
13:50 1020 30.12 849 25.07 14.9 58.9 24 -5.6 21.9
13:55 1020 30.12 849 25.07 14.7 58.4 24 -5.7 21.8
14:00 1020 30.12 849 25.07 14.9 58.7 24 -5.5 22.1
14:05 1020 30.12 849 25.07 15 59 24 -5.5 22.1
14:10 1020 30.12 849 25.07 15.6 60 22 -6 21.2
14:15 1020 30.12 849 25.07 16.1 60.9 23 -5.3 22.5
14:20 1020 30.12 849 25.07 15.4 59.8 24 -4.8 23.4
14:25 1020 30.12 849 25.07 15 59 24 -5.2 22.6
14:30 1020 30.12 849 25.07 15.5 59.8 22 -6 21.2
14:35 1020 30.12 849 25.07 15.6 60.1 22 -5.7 21.7
14:40 1020 30.12 849 25.07 15 59 24 -5.4 22.3
14:45 1020 30.12 849 25.07 14.8 58.6 24 -5.5 22
14:50 1020 30.12 849 25.07 14.5 58.2 25 -5 23
14:55 1020 30.12 849 25.07 14.2 57.5 27 -4.6 23.8
15:00 1020 30.12 849 25.07 13.9 57 26 -5.3 22.5
15:05 1020 30.12 849 25.07 14.3 57.8 25 -5.3 22.4
15:10 1019 30.09 849 25.07 14.2 57.6 26 -5.1 22.9
15:15 1019 30.09 849 25.07 14.5 58.1 25 -5 23
15:20 1019 30.09 849 25.07 14.3 57.8 25 -5.2 22.7
15:25 1019 30.09 849 25.07 14.5 58 25 -5.5 22.1
15:30 1019 30.09 848 25.04 15.1 59.1 24 -5.4 22.2
15:35 1019 30.09 848 25.04 15.6 60 23 -5.4 22.4
15:40 1019 30.09 848 25.04 16.2 61.1 22 -5.4 22.2
15:45 1019 30.09 848 25.04 16.7 62.1 22 -5.2 22.7
15:50 1019 30.09 848 25.04 17.1 62.8 21 -5.4 22.2
15:55 1019 30.09 848 25.04 17.1 62.7 22 -5 23.1
16:00 1019 30.09 848 25.04 16 60.7 23 -4.8 23.3
16:05 1019 30.09 848 25.04 15 58.9 24 -5.3 22.5
16:10 1019 30.09 848 25.04 14.6 58.3 25 -5.1 22.8
16:15 1019 30.09 848 25.04 14.4 57.9 26 -5 23
16:20 1019 30.09 848 25.04 14.3 57.7 25 -5.4 22.2
16:25 1019 30.09 848 25.04 15.2 59.3 23 -5.5 22.2
16:30 1019 30.09 848 25.04 15.3 59.5 24 -5 23
16:35 1019 30.09 848 25.04 15.2 59.4 25 -4.7 23.5
16:40 1019 30.09 848 25.04 15.4 59.8 23 -5.3 22.4
16:45 1019 30.09 848 25.04 15.3 59.5 24 -5 23
16:50 1019 30.09 848 25.04 14.9 58.8 26 -4.5 23.9
16:55 1019 30.09 848 25.04 14.7 58.4 25 -4.9 23.2
17:00 1019 30.09 848 25.04 14.7 58.5 25 -5.1 22.7
17:05 1019 30.09 848 25.04 14.9 58.7 24 -5.2 22.6
17:10 1019 30.09 848 25.04 15 59.1 24 -5.4 22.3
17:15 1019 30.09 848 25.04 15.3 59.5 24 -5.3 22.5
17:20 1019 30.09 848 25.04 15.4 59.7 24 -5.1 22.7
17:25 1019 30.09 848 25.04 15 59.1 25 -5 23.1
17:30 1019 30.09 848 25.04 14.9 58.8 25 -4.7 23.6
17:35 1019 30.09 848 25.04 14.7 58.4 25 -5.1 22.9
17:40 1019 30.09 848 25.04 14.5 58.1 25 -5.2 22.6
17:45 1019 30.09 848 25.04 14.2 57.6 26 -5.2 22.7
17:50 1019 30.09 848 25.04 14.2 57.5 26 -5.2 22.7
17:55 1019 30.09 848 25.04 14.4 57.8 25 -5.3 22.4
18:00 1019 30.09 848 25.04 14.4 57.9 25 -5.1 22.9
18:05 1019 30.09 848 25.04 14.3 57.7 26 -5 22.9
18:10 1019 30.09 848 25.04 14 57.3 26 -5 23.1
18:15 1019 30.09 848 25.04 14 57.2 26 -5.1 22.8
18:20 1019 30.09 848 25.04 14 57.2 26 -5.2 22.7
18:25 1019 30.09 848 25.04 14 57.2 27 -4.8 23.3
18:30 1019 30.09 848 25.04 13.9 57 27 -4.8 23.4
18:35 1019 30.09 848 25.04 13.8 56.9 27 -4.9 23.2
18:40 1019 30.09 848 25.04 13.8 56.8 27 -4.8 23.3
18:45 1019 30.09 848 25.04 13.6 56.6 28 -4.6 23.7
18:50 1019 30.09 848 25.04 13.5 56.2 28 -4.4 24.1
18:55 1019 30.09 848 25.04 13.3 55.9 28 -5 23
19:00 1019 30.09 848 25.04 13.1 55.7 28 -4.7 23.5
19:05 1019 30.09 848 25.04 13.2 55.7 28 -4.7 23.6
19:10 1019 30.09 848 25.04 13 55.4 29 -4.3 24.2
19:15 1019 30.09 848 25.04 12.9 55.2 30 -4.2 24.4
19:20 1019 30.09 848 25.04 12.8 55.1 31 -4 24.8
19:25 1019 30.09 848 25.04 12.4 54.4 33 -3.5 25.6
19:30 1019 30.09 848 25.04 11.9 53.4 33 -3.7 25.4
19:35 1019 30.09 848 25.04 11.8 53.2 31 -4.6 23.8
19:40 1019 30.09 848 25.04 12.1 53.8 32 -4.1 24.6
19:45 1019 30.09 848 25.04 12.1 53.7 32 -4.3 24.3
19:50 1019 30.09 848 25.04 12.3 54.1 33 -3.7 25.3
19:55 1019 30.09 848 25.04 11.9 53.4 33 -3.7 25.4
20:00 1019 30.09 848 25.04 11.5 52.7 33 -4 24.8
20:05 1019 30.09 848 25.04 11.3 52.3 36 -3.2 26.2
20:10 1019 30.09 848 25.04 10.8 51.5 37 -3.2 26.3
20:15 1019 30.09 848 25.04 10.5 50.9 38 -3.3 26.1
20:20 1019 30.09 848 25.04 10.4 50.7 37 -3.5 25.7
20:25 1019 30.09 848 25.04 10.3 50.6 40 -2.7 27.1
20:30 1019 30.09 848 25.04 9.9 49.9 40 -2.9 26.8
20:35 1019 30.09 848 25.04 10 50.1 37 -3.9 25.1
20:40 1019 30.09 848 25.04 10.2 50.3 37 -3.7 25.4
20:45 1019 30.09 848 25.04 10.1 50.2 40 -2.9 26.7
20:50 1019 30.09 848 25.04 9.8 49.6 40 -3 26.5
20:55 1019 30.09 848 25.04 10 50 38 -3.5 25.7
21:00 1019 30.09 848 25.04 10 50 39 -3.5 25.8
21:05 1019 30.09 848 25.04 9.8 49.6 40 -3.2 26.3
21:10 1019 30.09 848 25.04 9.4 48.9 40 -3.3 26
21:15 1019 30.09 848 25.04 9.3 48.7 41 -3.3 26
21:20 1019 30.09 848 25.04 9.1 48.3 42 -3 26.5
21:25 1019 30.09 848 25.04 9 48.1 42 -3.3 26
21:30 1019 30.09 848 25.04 8.7 47.7 43 -3.1 26.4
21:35 1019 30.09 848 25.04 8.4 47.2 45 -2.9 26.7
21:40 1019 30.09 848 25.04 8.2 46.8 46 -2.6 27.2
21:45 1019 30.09 848 25.04 8.1 46.6 47 -2.6 27.3
21:50 1019 30.09 848 25.04 8.2 46.8 47 -2.4 27.7
21:55 1019 30.09 848 25.04 8.2 46.8 47 -2.3 27.9
22:00 1019 30.09 848 25.04 8.2 46.7 48 -2.2 28.1
22:05 1019 30.09 848 25.04 8 46.5 48 -2.2 28.1
22:10 1019 30.09 848 25.04 7.9 46.2 49 -2.1 28.2
22:15 1019 30.09 848 25.04 7.9 46.1 49 -2.1 28.2
22:20 1019 30.09 848 25.04 7.8 46.1 50 -2 28.4
22:25 1019 30.09 848 25.04 7.8 46.1 50 -2 28.4
22:30 1019 30.09 848 25.04 7.8 46.1 50 -1.9 28.5
22:35 1019 30.09 848 25.04 7.8 46 50 -1.9 28.5
22:40 1019 30.09 848 25.04 7.8 46.1 50 -1.8 28.7
22:45 1019 30.09 848 25.04 7.9 46.1 50 -1.8 28.7
22:50 1019 30.09 848 25.04 7.9 46.2 50 -2 28.4
22:55 1019 30.09 848 25.04 8.1 46.6 48 -2.3 27.8
23:00 1019 30.09 848 25.04 8.3 46.9 47 -2.2 28
23:05 1019 30.09 848 25.04 8.2 46.8 48 -2.2 28
23:10 1019 30.09 848 25.04 8.2 46.7 47 -2.3 27.8
23:15 1019 30.09 848 25.04 8.1 46.7 48 -2.2 28.1
23:20 1019 30.09 848 25.04 8 46.4 49 -2.1 28.2
23:25 1019 30.09 848 25.04 7.8 46.1 50 -2 28.3
23:30 1019 30.09 848 25.04 7.7 45.8 50 -2.1 28.2
23:35 1019 30.09 848 25.04 7.5 45.6 50 -2.1 28.2
23:40 1019 30.09 848 25.04 7.4 45.3 51 -2 28.4
23:45 1019 30.09 848 25.04 7.3 45.2 51 -2 28.3
23:50 1019 30.09 848 25.04 7.2 44.9 51 -2.1 28.1
23:55 1019 30.09 848 25.04 7.1 44.7 51 -2.4 27.7
24:00 1019 30.09 848 25.04 7.2 44.9 50 -2.5 27.6